createdAt,value
2022-10-14T00:01:15.999Z,16.90
2022-10-14T00:04:02.843Z,15.33
2022-10-14T00:06:49.261Z,19.23
2022-10-14T00:09:35.735Z,20.50
2022-10-14T00:12:22.295Z,21.70
2022-10-14T00:15:09.732Z,17.40
2022-10-14T00:17:57.720Z,19.53
2022-10-14T00:20:44.525Z,20.40
2022-10-14T00:23:30.978Z,20.10
2022-10-14T00:26:20.174Z,17.40
2022-10-14T00:29:09.337Z,20.67
2022-10-14T00:31:56.081Z,21.83
2022-10-14T00:34:44.060Z,22.83
2022-10-14T00:37:30.657Z,21.30
2022-10-14T00:40:17.363Z,19.67
2022-10-14T00:43:03.991Z,22.20
2022-10-14T00:45:50.494Z,22.03
2022-10-14T00:48:37.219Z,24.00
2022-10-14T00:51:25.067Z,22.93
2022-10-14T00:54:14.668Z,23.23
2022-10-14T00:57:02.349Z,23.83
2022-10-14T00:59:49.319Z,22.30
2022-10-14T01:02:35.998Z,30.97
2022-10-14T01:05:22.812Z,28.80
2022-10-14T01:08:15.134Z,21.90
2022-10-14T01:11:10.143Z,26.17
2022-10-14T01:14:07.866Z,25.80
2022-10-14T01:16:59.915Z,25.20
2022-10-14T01:20:05.753Z,29.03
2022-10-14T01:23:03.712Z,21.57
2022-10-14T01:25:58.913Z,26.07
2022-10-14T01:28:53.216Z,24.87
2022-10-14T01:31:46.849Z,25.67
2022-10-14T01:34:39.510Z,27.17
2022-10-14T01:37:29.260Z,27.67
2022-10-14T01:40:24.051Z,27.40
2022-10-14T01:43:13.723Z,25.60
2022-10-14T01:46:03.315Z,25.00
2022-10-14T01:48:54.456Z,27.83
2022-10-14T01:51:47.241Z,29.30
2022-10-14T01:54:38.872Z,28.73
2022-10-14T01:57:30.098Z,26.63
2022-10-14T02:00:17.300Z,28.43
2022-10-14T02:03:04.091Z,29.03
2022-10-14T02:05:59.460Z,33.47
2022-10-14T02:09:00.170Z,31.70
2022-10-14T02:11:57.176Z,29.23
2022-10-14T02:14:51.840Z,29.50
2022-10-14T02:17:49.283Z,31.20
2022-10-14T02:20:41.442Z,28.90
2022-10-14T02:23:33.328Z,35.90
2022-10-14T02:26:20.416Z,35.90
2022-10-14T02:29:07.835Z,33.57
2022-10-14T02:31:55.736Z,32.57
2022-10-14T02:34:46.057Z,33.67
2022-10-14T02:37:34.784Z,33.03
2022-10-14T02:40:28.982Z,35.07
2022-10-14T02:43:15.842Z,33.53
2022-10-14T02:46:04.244Z,30.90
2022-10-14T02:48:50.914Z,34.43
2022-10-14T02:51:37.402Z,32.03
2022-10-14T02:54:24.021Z,33.67
2022-10-14T02:57:12.083Z,32.37
2022-10-14T02:59:58.514Z,31.33
2022-10-14T03:02:45.180Z,31.07
2022-10-14T03:05:31.698Z,33.10
2022-10-14T03:08:18.751Z,34.87
2022-10-14T03:11:05.264Z,35.37
2022-10-14T03:13:53.323Z,33.40
2022-10-14T03:16:40.173Z,33.83
2022-10-14T03:19:26.723Z,33.07
2022-10-14T03:22:13.684Z,35.23
2022-10-14T03:25:00.017Z,35.57
2022-10-14T03:27:46.518Z,36.93
2022-10-14T03:30:34.530Z,31.83
2022-10-14T03:33:22.805Z,41.07
2022-10-14T03:36:13.232Z,32.40
2022-10-14T03:39:00.060Z,34.20
2022-10-14T03:41:47.285Z,35.70
2022-10-14T03:44:33.667Z,33.43
2022-10-14T03:47:21.529Z,32.73
2022-10-14T03:50:08.427Z,33.57
2022-10-14T03:52:55.859Z,31.60
2022-10-14T03:55:42.888Z,33.00
2022-10-14T03:58:29.806Z,31.47
2022-10-14T04:01:16.478Z,29.47
2022-10-14T04:04:04.622Z,28.27
2022-10-14T04:06:51.340Z,30.23
2022-10-14T04:09:37.783Z,23.43
2022-10-14T04:12:24.409Z,27.47
2022-10-14T04:15:11.635Z,25.13
2022-10-14T04:17:58.512Z,25.97
2022-10-14T04:20:46.821Z,29.77
2022-10-14T04:23:33.594Z,25.13
2022-10-14T04:26:20.053Z,26.00
2022-10-14T04:29:06.616Z,28.60
2022-10-14T04:31:52.983Z,26.00
2022-10-14T04:34:39.461Z,25.60
2022-10-14T04:37:27.302Z,26.37
2022-10-14T04:40:14.191Z,23.17
2022-10-14T04:43:01.005Z,26.03
2022-10-14T04:45:48.128Z,26.23
2022-10-14T04:48:34.538Z,26.43
2022-10-14T04:51:21.780Z,26.33
2022-10-14T04:54:10.193Z,26.43
2022-10-14T04:56:57.079Z,28.57
2022-10-14T04:59:43.539Z,26.33
2022-10-14T05:02:30.020Z,26.67
2022-10-14T05:05:16.618Z,26.00
2022-10-14T05:08:03.440Z,29.47
2022-10-14T05:10:51.535Z,26.57
2022-10-14T05:13:38.110Z,26.03
2022-10-14T05:16:24.935Z,24.37
2022-10-14T05:19:11.505Z,24.33
2022-10-14T05:21:57.946Z,28.40
2022-10-14T05:24:44.467Z,23.83
2022-10-14T05:27:32.456Z,23.13
2022-10-14T05:30:19.424Z,24.77
2022-10-14T05:33:06.118Z,27.13
2022-10-14T05:36:00.091Z,25.00
2022-10-14T05:38:46.716Z,24.00
2022-10-14T05:41:33.260Z,25.40
2022-10-14T05:44:21.068Z,23.87
2022-10-14T05:47:07.672Z,26.23
2022-10-14T05:49:54.167Z,25.40
2022-10-14T05:52:40.980Z,24.50
2022-10-14T05:55:27.660Z,24.80
2022-10-14T05:58:14.436Z,27.17
2022-10-14T06:01:03.107Z,25.57
2022-10-14T06:03:51.443Z,24.63
2022-10-14T06:06:38.320Z,28.90
2022-10-14T06:09:25.031Z,28.17
2022-10-14T06:12:11.781Z,24.33
2022-10-14T06:14:58.468Z,29.87
2022-10-14T06:17:46.386Z,34.00
2022-10-14T06:20:33.034Z,29.47
2022-10-14T06:23:19.632Z,26.57
2022-10-14T06:26:08.937Z,29.10
2022-10-14T06:28:55.598Z,28.57
2022-10-14T06:31:42.488Z,29.43
2022-10-14T06:34:30.235Z,26.97
2022-10-14T06:37:16.993Z,25.77
2022-10-14T06:40:04.017Z,27.93
2022-10-14T06:42:50.534Z,27.57
2022-10-14T06:45:37.172Z,26.53
2022-10-14T06:48:23.564Z,28.90
2022-10-14T06:51:11.640Z,30.53
2022-10-14T06:53:58.400Z,26.90
2022-10-14T06:56:44.764Z,31.23
2022-10-14T06:59:31.271Z,28.17
2022-10-14T07:02:17.745Z,28.90
2022-10-14T07:05:04.184Z,30.43
2022-10-14T07:07:52.335Z,30.53
2022-10-14T07:10:39.111Z,30.20
2022-10-14T07:13:25.632Z,29.73
2022-10-14T07:16:12.451Z,27.87
2022-10-14T07:18:59.330Z,30.83
2022-10-14T07:21:46.665Z,30.73
2022-10-14T07:24:34.530Z,28.33
2022-10-14T07:27:21.500Z,28.27
2022-10-14T07:30:11.493Z,29.87
2022-10-14T07:33:00.677Z,32.43
2022-10-14T07:35:47.013Z,38.80
2022-10-14T07:38:33.523Z,33.60
2022-10-14T07:41:24.600Z,37.13
2022-10-14T07:44:16.745Z,38.70
2022-10-14T07:47:03.357Z,36.13
2022-10-14T07:49:49.764Z,37.90
2022-10-14T07:52:36.245Z,37.03
2022-10-14T07:55:22.866Z,38.93
2022-10-14T07:58:10.623Z,47.17
2022-10-14T08:00:58.327Z,42.83
2022-10-14T08:03:45.754Z,47.20
2022-10-14T08:06:32.307Z,46.70
2022-10-14T08:09:19.904Z,56.90
2022-10-14T08:12:07.145Z,47.37
2022-10-14T08:14:58.098Z,52.10
2022-10-14T08:17:44.627Z,46.77
2022-10-14T08:20:32.317Z,50.47
2022-10-14T08:23:19.969Z,55.13
2022-10-14T08:26:19.116Z,44.60
2022-10-14T08:29:09.094Z,50.30
2022-10-14T08:31:57.331Z,54.53
2022-10-14T08:34:44.060Z,56.90
2022-10-14T08:37:30.333Z,55.87
2022-10-14T08:40:18.164Z,52.00
2022-10-14T08:43:16.700Z,58.13
2022-10-14T08:46:13.868Z,54.97
2022-10-14T08:49:07.323Z,51.93
2022-10-14T08:51:58.984Z,55.10
2022-10-14T08:54:49.236Z,52.73
2022-10-14T08:57:43.975Z,58.63
2022-10-14T09:00:34.555Z,50.90
2022-10-14T09:03:23.900Z,51.23
2022-10-14T09:06:19.656Z,45.47
2022-10-14T09:09:10.956Z,44.03
2022-10-14T09:12:01.609Z,41.03
2022-10-14T09:14:55.572Z,35.63
2022-10-14T09:17:47.613Z,39.97
2022-10-14T09:20:34.812Z,33.10
2022-10-14T09:23:24.390Z,35.57
2022-10-14T09:26:17.430Z,32.00
2022-10-14T09:29:03.944Z,34.83
2022-10-14T09:31:50.584Z,30.00
2022-10-14T09:34:39.795Z,30.87
2022-10-14T09:37:28.842Z,30.60
2022-10-14T09:40:21.275Z,23.30
2022-10-14T09:43:16.625Z,24.00
2022-10-14T09:46:07.242Z,28.53
2022-10-14T09:48:55.120Z,23.50
2022-10-14T09:51:44.699Z,24.00
2022-10-14T09:54:32.893Z,18.70
2022-10-14T09:57:21.651Z,20.77
2022-10-14T10:00:25.821Z,19.03
2022-10-14T10:03:27.177Z,15.57
2022-10-14T10:06:15.965Z,12.07
2022-10-14T10:09:02.901Z,13.60
2022-10-14T10:11:49.815Z,12.70
2022-10-14T10:14:37.572Z,9.53
2022-10-14T10:17:24.464Z,7.97
2022-10-14T10:20:28.250Z,7.27
2022-10-14T10:23:26.092Z,6.37
2022-10-14T10:26:18.668Z,8.40
2022-10-14T10:29:06.711Z,7.63
2022-10-14T10:32:02.233Z,7.43
2022-10-14T10:35:09.779Z,7.80
2022-10-14T10:38:06.757Z,6.50
2022-10-14T10:41:07.512Z,6.27
2022-10-14T10:44:19.618Z,6.23
2022-10-14T10:47:20.697Z,10.17
2022-10-14T10:50:33.802Z,5.50
2022-10-14T10:53:41.490Z,5.27
2022-10-14T10:56:34.345Z,4.33
2022-10-14T10:59:39.470Z,3.17
2022-10-14T11:02:56.010Z,2.33
2022-10-14T11:05:53.004Z,2.10
2022-10-14T11:09:15.688Z,1.83
2022-10-14T11:12:13.706Z,3.43
2022-10-14T11:15:13.992Z,2.60
2022-10-14T11:18:04.767Z,2.47
2022-10-14T11:21:04.902Z,2.27
2022-10-14T11:24:02.007Z,2.47
2022-10-14T11:27:04.012Z,2.40
2022-10-14T11:30:08.863Z,3.20
2022-10-14T11:33:14.883Z,2.33
2022-10-14T11:36:13.252Z,3.00
2022-10-14T11:39:23.283Z,2.93
2022-10-14T11:42:25.734Z,2.40
2022-10-14T11:45:30.447Z,4.20
2022-10-14T11:48:33.638Z,3.73
2022-10-14T11:51:24.403Z,3.17
2022-10-14T11:54:15.469Z,5.63
2022-10-14T11:57:05.795Z,3.63
2022-10-14T11:59:54.155Z,3.23
2022-10-14T12:02:46.110Z,3.40
2022-10-14T12:05:40.141Z,4.27
2022-10-14T12:08:35.694Z,4.37
2022-10-14T12:11:30.722Z,2.40
2022-10-14T12:14:22.557Z,4.07
2022-10-14T12:17:18.774Z,2.80
2022-10-14T12:20:27.566Z,2.77
2022-10-14T12:23:24.332Z,2.70
2022-10-14T12:26:19.821Z,2.27
2022-10-14T12:29:07.311Z,2.30
2022-10-14T12:32:10.559Z,2.33
2022-10-14T12:34:58.219Z,1.90
2022-10-14T12:37:52.161Z,2.63
2022-10-14T12:40:40.471Z,2.43
2022-10-14T12:43:29.744Z,1.80
2022-10-14T12:46:16.882Z,2.53
2022-10-14T12:49:04.628Z,2.10
2022-10-14T12:51:55.831Z,1.50
2022-10-14T12:54:49.569Z,1.77
2022-10-14T12:57:41.492Z,2.17
2022-10-14T13:00:31.892Z,1.80
2022-10-14T13:03:21.063Z,2.70
2022-10-14T13:06:30.985Z,1.70
2022-10-14T13:09:42.093Z,1.70
2022-10-14T13:12:45.068Z,1.50
2022-10-14T13:15:50.530Z,2.03
2022-10-14T13:18:52.706Z,1.70
2022-10-14T13:21:53.998Z,1.50
2022-10-14T13:24:41.655Z,1.83
2022-10-14T13:27:37.807Z,1.70
2022-10-14T13:30:35.744Z,2.27
2022-10-14T13:33:27.963Z,1.57
2022-10-14T13:36:19.393Z,1.40
2022-10-14T13:39:06.422Z,4.77
2022-10-14T13:41:53.065Z,1.40
2022-10-14T13:44:39.908Z,1.83
2022-10-14T13:47:28.426Z,1.10
2022-10-14T13:50:18.443Z,41.60
2022-10-14T13:53:10.358Z,2.77
2022-10-14T13:55:58.678Z,2.30
2022-10-14T13:58:45.370Z,1.40
2022-10-14T14:01:35.870Z,1.50
2022-10-14T14:04:26.923Z,1.10
2022-10-14T14:08:08.447Z,1.00
2022-10-14T14:10:25.876Z,1.53
2022-10-14T14:13:14.370Z,1.30
2022-10-14T14:16:00.824Z,2.80
2022-10-14T14:19:04.055Z,1.33
2022-10-14T14:22:07.359Z,1.17
2022-10-14T14:24:55.263Z,1.20
2022-10-14T14:27:48.707Z,1.17
2022-10-14T14:30:37.586Z,0.90
2022-10-14T14:33:30.373Z,0.87
2022-10-14T14:36:27.447Z,1.50
2022-10-14T14:39:26.364Z,1.77
2022-10-14T14:42:12.888Z,1.10
2022-10-14T14:45:04.203Z,2.30
2022-10-14T14:47:52.461Z,1.57
2022-10-14T14:50:43.395Z,3.13
2022-10-14T14:53:30.816Z,1.40
2022-10-14T14:56:24.104Z,1.53
2022-10-14T14:59:21.476Z,1.20
2022-10-14T15:02:14.997Z,1.20
2022-10-14T15:05:03.400Z,1.20
2022-10-14T15:07:50.928Z,1.63
2022-10-14T15:10:37.413Z,1.50
2022-10-14T15:13:47.814Z,1.90
2022-10-14T15:16:37.164Z,1.77
2022-10-14T15:19:34.098Z,1.53
2022-10-14T15:22:32.108Z,2.50
2022-10-14T15:25:31.363Z,1.70
2022-10-14T15:28:31.753Z,1.70
2022-10-14T15:31:18.279Z,2.20
2022-10-14T15:34:06.044Z,1.87
2022-10-14T15:36:54.163Z,2.07
2022-10-14T15:39:41.240Z,1.60
2022-10-14T15:42:27.667Z,2.97
2022-10-14T15:45:15.991Z,1.70
2022-10-14T15:48:06.066Z,2.73
2022-10-14T15:50:52.661Z,4.97
2022-10-14T15:53:39.152Z,3.17
2022-10-14T15:56:25.627Z,3.57
2022-10-14T15:59:12.289Z,3.00
2022-10-14T16:02:00.038Z,2.70
2022-10-14T16:05:07.321Z,4.03
2022-10-14T16:07:53.497Z,3.17
2022-10-14T16:10:40.027Z,3.70
2022-10-14T16:13:26.552Z,6.10
2022-10-14T16:16:14.552Z,4.30
2022-10-14T16:19:03.637Z,2.90
2022-10-14T16:21:50.895Z,7.87
2022-10-14T16:24:37.594Z,4.20
2022-10-14T16:27:24.748Z,6.33
2022-10-14T16:30:12.408Z,5.67
2022-10-14T16:32:58.795Z,4.10
2022-10-14T16:35:50.754Z,4.00
2022-10-14T16:38:37.524Z,4.43
2022-10-14T16:41:24.436Z,4.40
2022-10-14T16:44:24.704Z,5.37
2022-10-14T16:47:17.277Z,6.00
2022-10-14T16:50:04.389Z,4.97
2022-10-14T16:53:10.112Z,9.43
2022-10-14T16:55:58.112Z,6.80
2022-10-14T16:58:44.488Z,6.37
2022-10-14T17:01:31.711Z,6.60
2022-10-14T17:04:19.567Z,8.10
2022-10-14T17:07:08.840Z,6.37
2022-10-14T17:09:57.834Z,9.33
2022-10-14T17:12:44.459Z,7.73
2022-10-14T17:15:31.012Z,11.50
2022-10-14T17:18:17.981Z,7.50
2022-10-14T17:21:07.915Z,7.30
2022-10-14T17:23:54.864Z,8.50
2022-10-14T17:26:42.844Z,8.57
2022-10-14T17:29:29.516Z,8.80
2022-10-14T17:32:16.864Z,6.73
2022-10-14T17:35:03.883Z,7.47
2022-10-14T17:37:50.632Z,9.40
2022-10-14T17:40:37.364Z,7.97
2022-10-14T17:43:25.901Z,8.93
2022-10-14T17:46:13.655Z,9.37
2022-10-14T17:49:01.703Z,7.90
2022-10-14T17:51:48.736Z,6.63
2022-10-14T17:54:35.505Z,8.43
2022-10-14T17:57:21.999Z,7.13
2022-10-14T18:00:11.636Z,7.07
2022-10-14T18:02:58.195Z,8.70
2022-10-14T18:05:48.127Z,8.30
2022-10-14T18:08:35.713Z,8.53
2022-10-14T18:11:23.328Z,8.23
2022-10-14T18:14:13.624Z,10.23
2022-10-14T18:17:01.793Z,9.97
2022-10-14T18:19:52.226Z,11.93
2022-10-14T18:22:39.524Z,10.03
2022-10-14T18:25:25.893Z,10.30
2022-10-14T18:28:12.882Z,12.17
2022-10-14T18:31:04.805Z,11.07
2022-10-14T18:33:53.999Z,9.97
2022-10-14T18:36:40.678Z,12.10
2022-10-14T18:39:27.246Z,10.47
2022-10-14T18:42:17.120Z,12.33
2022-10-14T18:45:07.688Z,9.20
2022-10-14T18:47:54.114Z,9.10
2022-10-14T18:50:42.165Z,10.43
2022-10-14T18:53:31.198Z,10.67
2022-10-14T18:56:20.742Z,11.30
2022-10-14T18:59:09.203Z,11.53
2022-10-14T19:01:56.160Z,10.80
2022-10-14T19:04:43.087Z,10.13
2022-10-14T19:07:31.003Z,9.33
2022-10-14T19:10:17.699Z,9.37
2022-10-14T19:13:05.803Z,11.63
2022-10-14T19:16:00.981Z,10.27
2022-10-14T19:18:48.242Z,10.23
2022-10-14T19:21:34.913Z,9.97
2022-10-14T19:24:23.133Z,10.93
2022-10-14T19:27:09.793Z,10.37
2022-10-14T19:29:56.224Z,9.73
2022-10-14T19:32:42.695Z,8.20
2022-10-14T19:35:29.170Z,8.47
2022-10-14T19:38:15.714Z,9.10
2022-10-14T19:41:04.991Z,9.03
2022-10-14T19:43:53.466Z,7.37
2022-10-14T19:46:41.222Z,8.20
2022-10-14T19:49:27.680Z,9.70
2022-10-14T19:52:14.320Z,12.03
2022-10-14T19:55:00.724Z,9.37
2022-10-14T19:57:48.674Z,12.23
2022-10-14T20:00:36.631Z,9.20
2022-10-14T20:03:23.314Z,12.37
2022-10-14T20:06:11.424Z,12.23
2022-10-14T20:08:58.255Z,8.17
2022-10-14T20:11:45.860Z,10.40
2022-10-14T20:14:34.008Z,8.00
2022-10-14T20:17:20.671Z,12.33
2022-10-14T20:20:08.805Z,6.97
2022-10-14T20:22:55.277Z,8.53
2022-10-14T20:25:42.248Z,6.60
2022-10-14T20:28:29.139Z,7.37
2022-10-14T20:31:19.444Z,11.57
2022-10-14T20:34:10.446Z,6.20
2022-10-14T20:36:58.048Z,6.50
2022-10-14T20:39:44.633Z,7.70
2022-10-14T20:42:31.307Z,8.40
2022-10-14T20:45:18.090Z,8.10
2022-10-14T20:48:06.412Z,5.97
2022-10-14T20:50:53.225Z,7.10
2022-10-14T20:56:29.847Z,10.43
2022-10-14T20:59:16.640Z,6.47
2022-10-14T21:02:03.393Z,6.37
2022-10-14T21:04:52.159Z,6.87
2022-10-14T21:07:38.955Z,7.37
2022-10-14T21:10:25.451Z,6.00
2022-10-14T21:13:12.025Z,10.10
2022-10-14T21:15:58.830Z,7.60
2022-10-14T21:18:53.579Z,8.07
2022-10-14T21:21:46.155Z,8.20
2022-10-14T21:24:32.764Z,10.47
2022-10-14T21:27:19.381Z,8.83
2022-10-14T21:30:06.698Z,10.73
2022-10-14T21:32:53.201Z,10.03
2022-10-14T21:35:39.755Z,10.53
2022-10-14T21:38:29.886Z,10.03
2022-10-14T21:41:16.687Z,8.57
2022-10-14T21:44:03.762Z,9.23
2022-10-14T21:46:50.449Z,11.97
2022-10-14T21:49:37.187Z,11.60
2022-10-14T21:52:24.053Z,13.17
2022-10-14T21:55:12.529Z,13.37
2022-10-14T21:57:59.381Z,14.10
2022-10-14T22:00:45.778Z,14.60
2022-10-14T22:03:32.755Z,15.80
2022-10-14T22:06:19.286Z,17.67
2022-10-14T22:09:08.116Z,16.20
2022-10-14T22:11:56.004Z,17.13
2022-10-14T22:14:42.902Z,14.80
2022-10-14T22:17:29.402Z,17.43
2022-10-14T22:20:16.048Z,17.43
2022-10-14T22:23:03.117Z,20.43
2022-10-14T22:25:49.517Z,17.33
2022-10-14T22:28:37.591Z,17.97
2022-10-14T22:31:24.358Z,15.30
2022-10-14T22:34:13.207Z,15.20
2022-10-14T22:37:01.630Z,15.57
2022-10-14T22:39:48.160Z,15.63
2022-10-14T22:42:36.868Z,18.43
2022-10-14T22:45:27.063Z,16.00
2022-10-14T22:48:13.748Z,15.87
2022-10-14T22:51:06.000Z,15.60
2022-10-14T22:53:52.859Z,17.00
2022-10-14T22:56:40.444Z,17.17
2022-10-14T22:59:26.994Z,16.70
2022-10-14T23:02:14.693Z,18.63
2022-10-14T23:05:01.483Z,18.70
2022-10-14T23:07:48.421Z,17.37
2022-10-14T23:10:34.823Z,20.87
2022-10-14T23:13:21.355Z,23.30
2022-10-14T23:16:11.252Z,18.83
2022-10-14T23:18:59.910Z,19.13
2022-10-14T23:21:46.404Z,17.47
2022-10-14T23:24:32.981Z,19.03
2022-10-14T23:27:19.437Z,18.93
2022-10-14T23:30:07.423Z,20.00
2022-10-14T23:32:54.123Z,19.60
2022-10-14T23:35:41.930Z,17.53
2022-10-14T23:38:28.683Z,23.13
2022-10-14T23:41:15.794Z,24.50
2022-10-14T23:44:03.210Z,22.30
2022-10-14T23:46:50.348Z,22.17
2022-10-14T23:49:36.728Z,25.73
2022-10-14T23:52:24.663Z,22.37
2022-10-14T23:55:11.478Z,20.90
2022-10-14T23:57:58.203Z,25.50
